sensor_id;sensor_type;location;lat;lon;timestamp;P1;durP1;ratioP1;P2;durP2;ratioP2
56893;SDS011;43392;50.078;13.704;2023-03-01T00:02:02;60.30;;;30.33;;
56893;SDS011;43392;50.078;13.704;2023-03-01T00:04:29;56.20;;;28.47;;
56893;SDS011;43392;50.078;13.704;2023-03-01T00:06:56;57.27;;;30.30;;
56893;SDS011;43392;50.078;13.704;2023-03-01T00:09:24;57.47;;;29.63;;
56893;SDS011;43392;50.078;13.704;2023-03-01T00:11:50;56.63;;;28.50;;
56893;SDS011;43392;50.078;13.704;2023-03-01T00:14:17;59.03;;;30.60;;
56893;SDS011;43392;50.078;13.704;2023-03-01T00:16:44;57.37;;;30.20;;
56893;SDS011;43392;50.078;13.704;2023-03-01T00:19:12;56.17;;;29.53;;
56893;SDS011;43392;50.078;13.704;2023-03-01T00:21:40;60.70;;;29.93;;
56893;SDS011;43392;50.078;13.704;2023-03-01T00:24:08;54.90;;;29.90;;
56893;SDS011;43392;50.078;13.704;2023-03-01T00:26:36;64.57;;;31.17;;
56893;SDS011;43392;50.078;13.704;2023-03-01T00:29:03;71.10;;;32.37;;
56893;SDS011;43392;50.078;13.704;2023-03-01T00:31:30;59.77;;;30.77;;
56893;SDS011;43392;50.078;13.704;2023-03-01T00:33:59;71.60;;;35.80;;
56893;SDS011;43392;50.078;13.704;2023-03-01T00:36:31;65.60;;;33.20;;
56893;SDS011;43392;50.078;13.704;2023-03-01T00:38:59;60.70;;;29.70;;
56893;SDS011;43392;50.078;13.704;2023-03-01T00:41:26;65.40;;;31.77;;
56893;SDS011;43392;50.078;13.704;2023-03-01T00:43:55;61.30;;;28.90;;
56893;SDS011;43392;50.078;13.704;2023-03-01T00:46:22;51.50;;;28.33;;
56893;SDS011;43392;50.078;13.704;2023-03-01T00:48:49;54.40;;;26.73;;
56893;SDS011;43392;50.078;13.704;2023-03-01T00:51:17;60.63;;;28.90;;
56893;SDS011;43392;50.078;13.704;2023-03-01T00:53:46;63.80;;;29.17;;
56893;SDS011;43392;50.078;13.704;2023-03-01T00:56:14;66.10;;;31.37;;
56893;SDS011;43392;50.078;13.704;2023-03-01T00:58:41;61.57;;;29.20;;
56893;SDS011;43392;50.078;13.704;2023-03-01T01:01:09;55.60;;;27.23;;
56893;SDS011;43392;50.078;13.704;2023-03-01T01:03:42;51.33;;;25.87;;
56893;SDS011;43392;50.078;13.704;2023-03-01T01:06:12;53.73;;;26.37;;
56893;SDS011;43392;50.078;13.704;2023-03-01T01:08:40;53.42;;;25.52;;
56893;SDS011;43392;50.078;13.704;2023-03-01T01:11:08;45.93;;;25.00;;
56893;SDS011;43392;50.078;13.704;2023-03-01T01:13:35;50.20;;;25.20;;
56893;SDS011;43392;50.078;13.704;2023-03-01T01:16:02;50.77;;;26.27;;
56893;SDS011;43392;50.078;13.704;2023-03-01T01:18:30;51.17;;;26.47;;
56893;SDS011;43392;50.078;13.704;2023-03-01T01:20:57;58.17;;;28.73;;
56893;SDS011;43392;50.078;13.704;2023-03-01T01:23:23;63.60;;;31.40;;
56893;SDS011;43392;50.078;13.704;2023-03-01T01:25:50;60.67;;;31.77;;
56893;SDS011;43392;50.078;13.704;2023-03-01T01:28:17;63.70;;;31.27;;
56893;SDS011;43392;50.078;13.704;2023-03-01T01:30:43;61.23;;;32.03;;
56893;SDS011;43392;50.078;13.704;2023-03-01T01:33:10;61.80;;;30.93;;
56893;SDS011;43392;50.078;13.704;2023-03-01T01:35:38;57.30;;;31.00;;
56893;SDS011;43392;50.078;13.704;2023-03-01T01:38:04;59.57;;;29.23;;
56893;SDS011;43392;50.078;13.704;2023-03-01T01:40:31;55.20;;;27.33;;
56893;SDS011;43392;50.078;13.704;2023-03-01T01:42:57;51.77;;;28.20;;
56893;SDS011;43392;50.078;13.704;2023-03-01T01:45:25;53.83;;;28.23;;
56893;SDS011;43392;50.078;13.704;2023-03-01T01:47:55;55.20;;;27.70;;
56893;SDS011;43392;50.078;13.704;2023-03-01T01:50:26;49.83;;;26.47;;
56893;SDS011;43392;50.078;13.704;2023-03-01T01:53:06;52.83;;;27.97;;
56893;SDS011;43392;50.078;13.704;2023-03-01T01:55:35;57.57;;;28.07;;
56893;SDS011;43392;50.078;13.704;2023-03-01T01:58:06;57.17;;;28.48;;
56893;SDS011;43392;50.078;13.704;2023-03-01T02:00:35;48.90;;;26.20;;
56893;SDS011;43392;50.078;13.704;2023-03-01T02:03:05;54.97;;;26.70;;
56893;SDS011;43392;50.078;13.704;2023-03-01T02:05:36;50.08;;;26.38;;
56893;SDS011;43392;50.078;13.704;2023-03-01T02:08:11;52.90;;;26.77;;
56893;SDS011;43392;50.078;13.704;2023-03-01T02:10:39;58.30;;;31.17;;
56893;SDS011;43392;50.078;13.704;2023-03-01T02:13:07;59.27;;;30.47;;
56893;SDS011;43392;50.078;13.704;2023-03-01T02:15:34;53.27;;;26.57;;
56893;SDS011;43392;50.078;13.704;2023-03-01T02:18:02;49.37;;;25.73;;
56893;SDS011;43392;50.078;13.704;2023-03-01T02:20:32;41.63;;;23.00;;
56893;SDS011;43392;50.078;13.704;2023-03-01T02:23:04;46.03;;;25.23;;
56893;SDS011;43392;50.078;13.704;2023-03-01T02:25:34;46.33;;;25.23;;
56893;SDS011;43392;50.078;13.704;2023-03-01T02:28:06;49.13;;;27.67;;
56893;SDS011;43392;50.078;13.704;2023-03-01T02:30:39;54.07;;;27.97;;
56893;SDS011;43392;50.078;13.704;2023-03-01T02:33:27;50.67;;;27.10;;
56893;SDS011;43392;50.078;13.704;2023-03-01T02:35:57;57.97;;;30.65;;
56893;SDS011;43392;50.078;13.704;2023-03-01T02:38:26;56.23;;;29.07;;
56893;SDS011;43392;50.078;13.704;2023-03-01T02:40:54;55.10;;;27.90;;
56893;SDS011;43392;50.078;13.704;2023-03-01T02:43:23;53.50;;;25.73;;
56893;SDS011;43392;50.078;13.704;2023-03-01T02:46:03;51.67;;;25.57;;
56893;SDS011;43392;50.078;13.704;2023-03-01T02:48:39;51.47;;;26.20;;
56893;SDS011;43392;50.078;13.704;2023-03-01T02:51:10;46.27;;;23.70;;
56893;SDS011;43392;50.078;13.704;2023-03-01T02:53:46;48.77;;;24.20;;
56893;SDS011;43392;50.078;13.704;2023-03-01T02:56:24;50.10;;;24.53;;
56893;SDS011;43392;50.078;13.704;2023-03-01T02:58:52;50.00;;;24.17;;
56893;SDS011;43392;50.078;13.704;2023-03-01T03:01:20;49.17;;;24.23;;
56893;SDS011;43392;50.078;13.704;2023-03-01T03:03:47;51.17;;;23.87;;
56893;SDS011;43392;50.078;13.704;2023-03-01T03:06:13;50.87;;;24.50;;
56893;SDS011;43392;50.078;13.704;2023-03-01T03:08:40;47.63;;;24.13;;
56893;SDS011;43392;50.078;13.704;2023-03-01T03:11:06;48.03;;;24.53;;
56893;SDS011;43392;50.078;13.704;2023-03-01T03:13:33;43.47;;;22.50;;
56893;SDS011;43392;50.078;13.704;2023-03-01T03:16:00;46.40;;;24.30;;
56893;SDS011;43392;50.078;13.704;2023-03-01T03:18:30;51.73;;;24.90;;
56893;SDS011;43392;50.078;13.704;2023-03-01T03:20:57;45.83;;;23.70;;
56893;SDS011;43392;50.078;13.704;2023-03-01T03:23:24;46.07;;;23.73;;
56893;SDS011;43392;50.078;13.704;2023-03-01T03:25:51;50.60;;;22.97;;
56893;SDS011;43392;50.078;13.704;2023-03-01T03:28:17;46.63;;;23.27;;
56893;SDS011;43392;50.078;13.704;2023-03-01T03:30:44;43.17;;;22.27;;
56893;SDS011;43392;50.078;13.704;2023-03-01T03:33:12;44.73;;;23.13;;
56893;SDS011;43392;50.078;13.704;2023-03-01T03:35:41;44.27;;;22.87;;
56893;SDS011;43392;50.078;13.704;2023-03-01T03:38:10;48.47;;;23.37;;
56893;SDS011;43392;50.078;13.704;2023-03-01T03:40:42;45.43;;;22.30;;
56893;SDS011;43392;50.078;13.704;2023-03-01T03:43:12;50.10;;;24.33;;
56893;SDS011;43392;50.078;13.704;2023-03-01T03:45:39;52.57;;;26.30;;
56893;SDS011;43392;50.078;13.704;2023-03-01T03:48:07;55.77;;;27.20;;
56893;SDS011;43392;50.078;13.704;2023-03-01T03:50:35;53.00;;;27.03;;
56893;SDS011;43392;50.078;13.704;2023-03-01T03:53:04;47.27;;;23.50;;
56893;SDS011;43392;50.078;13.704;2023-03-01T03:55:33;47.95;;;24.25;;
56893;SDS011;43392;50.078;13.704;2023-03-01T03:58:00;48.67;;;23.30;;
56893;SDS011;43392;50.078;13.704;2023-03-01T04:00:32;53.20;;;24.93;;
56893;SDS011;43392;50.078;13.704;2023-03-01T04:02:59;50.17;;;24.63;;
56893;SDS011;43392;50.078;13.704;2023-03-01T04:05:27;49.20;;;24.73;;
56893;SDS011;43392;50.078;13.704;2023-03-01T04:07:54;49.30;;;24.17;;
56893;SDS011;43392;50.078;13.704;2023-03-01T04:10:28;51.33;;;24.33;;
56893;SDS011;43392;50.078;13.704;2023-03-01T04:12:56;50.57;;;24.40;;
56893;SDS011;43392;50.078;13.704;2023-03-01T04:15:23;50.00;;;23.63;;
56893;SDS011;43392;50.078;13.704;2023-03-01T04:17:50;47.47;;;24.30;;
56893;SDS011;43392;50.078;13.704;2023-03-01T04:20:19;46.93;;;23.67;;
56893;SDS011;43392;50.078;13.704;2023-03-01T04:22:50;50.83;;;24.27;;
56893;SDS011;43392;50.078;13.704;2023-03-01T04:25:18;52.80;;;25.80;;
56893;SDS011;43392;50.078;13.704;2023-03-01T04:27:46;53.13;;;26.03;;
56893;SDS011;43392;50.078;13.704;2023-03-01T04:30:12;57.90;;;28.23;;
56893;SDS011;43392;50.078;13.704;2023-03-01T04:32:39;50.50;;;25.37;;
56893;SDS011;43392;50.078;13.704;2023-03-01T04:35:06;47.87;;;26.53;;
56893;SDS011;43392;50.078;13.704;2023-03-01T04:37:33;52.93;;;26.43;;
56893;SDS011;43392;50.078;13.704;2023-03-01T04:40:00;51.80;;;27.37;;
56893;SDS011;43392;50.078;13.704;2023-03-01T04:42:37;51.33;;;26.27;;
56893;SDS011;43392;50.078;13.704;2023-03-01T04:45:06;54.50;;;26.33;;
56893;SDS011;43392;50.078;13.704;2023-03-01T04:47:38;55.33;;;27.90;;
56893;SDS011;43392;50.078;13.704;2023-03-01T04:50:05;58.97;;;28.13;;
56893;SDS011;43392;50.078;13.704;2023-03-01T04:52:32;58.77;;;27.07;;
56893;SDS011;43392;50.078;13.704;2023-03-01T04:54:59;54.40;;;28.47;;
56893;SDS011;43392;50.078;13.704;2023-03-01T04:57:25;50.70;;;27.37;;
56893;SDS011;43392;50.078;13.704;2023-03-01T04:59:52;54.10;;;26.90;;
56893;SDS011;43392;50.078;13.704;2023-03-01T05:02:20;53.50;;;25.57;;
56893;SDS011;43392;50.078;13.704;2023-03-01T05:04:46;53.57;;;25.30;;
56893;SDS011;43392;50.078;13.704;2023-03-01T05:07:13;52.40;;;24.87;;
56893;SDS011;43392;50.078;13.704;2023-03-01T05:12:10;59.40;;;27.77;;
56893;SDS011;43392;50.078;13.704;2023-03-01T05:14:37;53.57;;;26.53;;
56893;SDS011;43392;50.078;13.704;2023-03-01T05:17:04;56.60;;;28.73;;
56893;SDS011;43392;50.078;13.704;2023-03-01T05:19:32;61.63;;;32.03;;
56893;SDS011;43392;50.078;13.704;2023-03-01T05:21:59;65.70;;;33.60;;
56893;SDS011;43392;50.078;13.704;2023-03-01T05:24:30;78.88;;;35.50;;
56893;SDS011;43392;50.078;13.704;2023-03-01T05:26:58;80.57;;;38.50;;
56893;SDS011;43392;50.078;13.704;2023-03-01T05:29:26;77.83;;;37.93;;
56893;SDS011;43392;50.078;13.704;2023-03-01T05:31:53;86.83;;;44.50;;
56893;SDS011;43392;50.078;13.704;2023-03-01T05:34:22;83.40;;;42.40;;
56893;SDS011;43392;50.078;13.704;2023-03-01T05:36:51;83.07;;;42.07;;
56893;SDS011;43392;50.078;13.704;2023-03-01T05:39:19;73.47;;;35.37;;
56893;SDS011;43392;50.078;13.704;2023-03-01T05:41:47;77.83;;;40.70;;
56893;SDS011;43392;50.078;13.704;2023-03-01T05:44:14;154.20;;;83.70;;
56893;SDS011;43392;50.078;13.704;2023-03-01T05:46:40;158.47;;;80.93;;
56893;SDS011;43392;50.078;13.704;2023-03-01T05:49:07;136.27;;;69.63;;
56893;SDS011;43392;50.078;13.704;2023-03-01T05:51:34;133.73;;;68.90;;
56893;SDS011;43392;50.078;13.704;2023-03-01T05:54:02;163.70;;;84.00;;
56893;SDS011;43392;50.078;13.704;2023-03-01T05:56:31;160.23;;;81.57;;
56893;SDS011;43392;50.078;13.704;2023-03-01T05:58:58;144.93;;;70.60;;
56893;SDS011;43392;50.078;13.704;2023-03-01T06:01:25;154.03;;;80.97;;
56893;SDS011;43392;50.078;13.704;2023-03-01T06:03:51;131.53;;;67.00;;
56893;SDS011;43392;50.078;13.704;2023-03-01T06:06:18;153.80;;;87.33;;
56893;SDS011;43392;50.078;13.704;2023-03-01T06:08:45;106.07;;;61.17;;
56893;SDS011;43392;50.078;13.704;2023-03-01T06:11:13;96.57;;;52.07;;
56893;SDS011;43392;50.078;13.704;2023-03-01T06:13:40;95.03;;;48.53;;
56893;SDS011;43392;50.078;13.704;2023-03-01T06:16:07;78.73;;;42.13;;
56893;SDS011;43392;50.078;13.704;2023-03-01T06:18:34;72.77;;;36.40;;
56893;SDS011;43392;50.078;13.704;2023-03-01T06:21:01;79.93;;;39.37;;
56893;SDS011;43392;50.078;13.704;2023-03-01T06:23:28;77.50;;;39.40;;
56893;SDS011;43392;50.078;13.704;2023-03-01T06:25:55;75.03;;;34.27;;
56893;SDS011;43392;50.078;13.704;2023-03-01T06:28:23;70.37;;;36.40;;
56893;SDS011;43392;50.078;13.704;2023-03-01T06:30:49;70.27;;;36.43;;
56893;SDS011;43392;50.078;13.704;2023-03-01T06:33:17;63.63;;;29.53;;
56893;SDS011;43392;50.078;13.704;2023-03-01T06:35:45;72.33;;;32.43;;
56893;SDS011;43392;50.078;13.704;2023-03-01T06:38:12;69.17;;;30.53;;
56893;SDS011;43392;50.078;13.704;2023-03-01T06:40:40;96.30;;;38.97;;
56893;SDS011;43392;50.078;13.704;2023-03-01T06:43:06;64.20;;;29.97;;
56893;SDS011;43392;50.078;13.704;2023-03-01T06:45:34;71.57;;;33.97;;
56893;SDS011;43392;50.078;13.704;2023-03-01T06:48:03;59.53;;;29.50;;
56893;SDS011;43392;50.078;13.704;2023-03-01T06:50:31;59.93;;;30.17;;
56893;SDS011;43392;50.078;13.704;2023-03-01T06:52:58;54.40;;;27.23;;
56893;SDS011;43392;50.078;13.704;2023-03-01T06:55:24;51.73;;;26.67;;
56893;SDS011;43392;50.078;13.704;2023-03-01T06:57:53;58.63;;;27.70;;
56893;SDS011;43392;50.078;13.704;2023-03-01T07:00:21;54.42;;;28.50;;
56893;SDS011;43392;50.078;13.704;2023-03-01T07:02:50;58.47;;;29.00;;
56893;SDS011;43392;50.078;13.704;2023-03-01T07:05:16;59.90;;;28.27;;
56893;SDS011;43392;50.078;13.704;2023-03-01T07:07:43;62.67;;;29.80;;
56893;SDS011;43392;50.078;13.704;2023-03-01T07:10:10;59.63;;;28.30;;
56893;SDS011;43392;50.078;13.704;2023-03-01T07:12:37;59.70;;;28.43;;
56893;SDS011;43392;50.078;13.704;2023-03-01T07:15:07;59.57;;;27.77;;
56893;SDS011;43392;50.078;13.704;2023-03-01T07:17:36;53.22;;;26.70;;
56893;SDS011;43392;50.078;13.704;2023-03-01T07:20:04;57.27;;;28.80;;
56893;SDS011;43392;50.078;13.704;2023-03-01T07:22:31;58.37;;;29.57;;
56893;SDS011;43392;50.078;13.704;2023-03-01T07:24:58;57.37;;;30.30;;
56893;SDS011;43392;50.078;13.704;2023-03-01T07:27:24;56.27;;;27.90;;
56893;SDS011;43392;50.078;13.704;2023-03-01T07:29:51;62.83;;;28.30;;
56893;SDS011;43392;50.078;13.704;2023-03-01T07:32:17;70.10;;;31.83;;
56893;SDS011;43392;50.078;13.704;2023-03-01T07:34:44;65.63;;;28.90;;
56893;SDS011;43392;50.078;13.704;2023-03-01T07:37:12;55.47;;;26.33;;
56893;SDS011;43392;50.078;13.704;2023-03-01T07:39:38;51.77;;;25.27;;
56893;SDS011;43392;50.078;13.704;2023-03-01T07:42:05;45.30;;;23.33;;
56893;SDS011;43392;50.078;13.704;2023-03-01T07:44:32;48.70;;;22.87;;
56893;SDS011;43392;50.078;13.704;2023-03-01T07:46:59;50.20;;;24.57;;
56893;SDS011;43392;50.078;13.704;2023-03-01T07:49:26;60.17;;;29.40;;
56893;SDS011;43392;50.078;13.704;2023-03-01T07:51:52;47.23;;;24.73;;
56893;SDS011;43392;50.078;13.704;2023-03-01T07:54:20;48.20;;;25.23;;
56893;SDS011;43392;50.078;13.704;2023-03-01T07:56:47;50.40;;;25.23;;
56893;SDS011;43392;50.078;13.704;2023-03-01T07:59:13;51.60;;;27.03;;
56893;SDS011;43392;50.078;13.704;2023-03-01T08:01:40;55.73;;;29.17;;
56893;SDS011;43392;50.078;13.704;2023-03-01T08:04:07;56.10;;;31.90;;
56893;SDS011;43392;50.078;13.704;2023-03-01T08:06:33;57.90;;;28.83;;
56893;SDS011;43392;50.078;13.704;2023-03-01T08:09:01;50.20;;;28.23;;
56893;SDS011;43392;50.078;13.704;2023-03-01T08:11:29;55.13;;;28.00;;
56893;SDS011;43392;50.078;13.704;2023-03-01T08:13:56;53.60;;;28.40;;
56893;SDS011;43392;50.078;13.704;2023-03-01T08:16:22;50.78;;;27.27;;
56893;SDS011;43392;50.078;13.704;2023-03-01T08:18:49;54.53;;;27.30;;
56893;SDS011;43392;50.078;13.704;2023-03-01T08:21:16;49.42;;;25.40;;
56893;SDS011;43392;50.078;13.704;2023-03-01T08:23:44;52.10;;;26.05;;
56893;SDS011;43392;50.078;13.704;2023-03-01T08:26:12;48.33;;;26.08;;
56893;SDS011;43392;50.078;13.704;2023-03-01T08:28:42;47.38;;;25.55;;
56893;SDS011;43392;50.078;13.704;2023-03-01T08:31:16;49.25;;;26.70;;
56893;SDS011;43392;50.078;13.704;2023-03-01T08:33:44;45.58;;;24.08;;
56893;SDS011;43392;50.078;13.704;2023-03-01T08:38:42;42.47;;;21.75;;
56893;SDS011;43392;50.078;13.704;2023-03-01T08:41:09;46.72;;;24.65;;
56893;SDS011;43392;50.078;13.704;2023-03-01T08:43:37;49.17;;;27.15;;
56893;SDS011;43392;50.078;13.704;2023-03-01T08:46:05;45.85;;;23.67;;
56893;SDS011;43392;50.078;13.704;2023-03-01T08:48:31;49.35;;;23.75;;
56893;SDS011;43392;50.078;13.704;2023-03-01T08:51:06;41.97;;;22.88;;
56893;SDS011;43392;50.078;13.704;2023-03-01T08:53:33;43.22;;;23.25;;
56893;SDS011;43392;50.078;13.704;2023-03-01T08:56:00;46.03;;;24.02;;
56893;SDS011;43392;50.078;13.704;2023-03-01T08:58:27;44.00;;;22.90;;
56893;SDS011;43392;50.078;13.704;2023-03-01T09:00:54;45.53;;;25.17;;
56893;SDS011;43392;50.078;13.704;2023-03-01T09:03:22;44.10;;;23.45;;
56893;SDS011;43392;50.078;13.704;2023-03-01T09:05:50;44.65;;;23.02;;
56893;SDS011;43392;50.078;13.704;2023-03-01T09:08:16;44.42;;;23.83;;
56893;SDS011;43392;50.078;13.704;2023-03-01T09:10:43;42.83;;;23.88;;
56893;SDS011;43392;50.078;13.704;2023-03-01T09:13:10;48.85;;;24.60;;
56893;SDS011;43392;50.078;13.704;2023-03-01T09:15:37;45.30;;;23.98;;
56893;SDS011;43392;50.078;13.704;2023-03-01T09:18:03;50.08;;;22.88;;
56893;SDS011;43392;50.078;13.704;2023-03-01T09:20:32;44.08;;;23.05;;
56893;SDS011;43392;50.078;13.704;2023-03-01T09:22:58;32.92;;;18.70;;
56893;SDS011;43392;50.078;13.704;2023-03-01T09:25:25;36.15;;;17.85;;
56893;SDS011;43392;50.078;13.704;2023-03-01T09:27:52;37.13;;;19.45;;
56893;SDS011;43392;50.078;13.704;2023-03-01T09:30:19;33.45;;;19.13;;
56893;SDS011;43392;50.078;13.704;2023-03-01T09:32:46;35.35;;;19.17;;
56893;SDS011;43392;50.078;13.704;2023-03-01T09:35:13;35.95;;;19.17;;
56893;SDS011;43392;50.078;13.704;2023-03-01T09:37:41;35.88;;;18.45;;
56893;SDS011;43392;50.078;13.704;2023-03-01T09:40:11;35.03;;;18.65;;
56893;SDS011;43392;50.078;13.704;2023-03-01T09:42:45;34.70;;;19.17;;
56893;SDS011;43392;50.078;13.704;2023-03-01T09:45:18;30.77;;;17.30;;
56893;SDS011;43392;50.078;13.704;2023-03-01T09:47:56;36.20;;;20.25;;
56893;SDS011;43392;50.078;13.704;2023-03-01T09:50:23;31.67;;;17.75;;
56893;SDS011;43392;50.078;13.704;2023-03-01T09:52:59;33.72;;;18.85;;
56893;SDS011;43392;50.078;13.704;2023-03-01T09:55:29;39.17;;;19.25;;
56893;SDS011;43392;50.078;13.704;2023-03-01T09:58:00;32.05;;;18.02;;
56893;SDS011;43392;50.078;13.704;2023-03-01T10:00:35;31.20;;;17.48;;
56893;SDS011;43392;50.078;13.704;2023-03-01T10:03:10;30.98;;;18.45;;
56893;SDS011;43392;50.078;13.704;2023-03-01T10:05:48;36.60;;;18.40;;
56893;SDS011;43392;50.078;13.704;2023-03-01T10:08:26;34.88;;;18.98;;
56893;SDS011;43392;50.078;13.704;2023-03-01T10:10:56;30.10;;;16.90;;
56893;SDS011;43392;50.078;13.704;2023-03-01T10:13:25;31.58;;;17.30;;
56893;SDS011;43392;50.078;13.704;2023-03-01T10:15:57;32.80;;;16.90;;
56893;SDS011;43392;50.078;13.704;2023-03-01T10:18:30;35.95;;;18.75;;
56893;SDS011;43392;50.078;13.704;2023-03-01T10:21:02;30.30;;;16.92;;
56893;SDS011;43392;50.078;13.704;2023-03-01T10:23:39;31.35;;;16.45;;
56893;SDS011;43392;50.078;13.704;2023-03-01T10:26:08;30.23;;;17.02;;
56893;SDS011;43392;50.078;13.704;2023-03-01T10:28:49;31.20;;;17.30;;
56893;SDS011;43392;50.078;13.704;2023-03-01T10:31:27;28.25;;;16.05;;
56893;SDS011;43392;50.078;13.704;2023-03-01T10:34:07;29.30;;;16.67;;
56893;SDS011;43392;50.078;13.704;2023-03-01T10:36:35;32.65;;;17.98;;
56893;SDS011;43392;50.078;13.704;2023-03-01T10:39:11;28.50;;;16.15;;
56893;SDS011;43392;50.078;13.704;2023-03-01T10:41:44;27.67;;;16.15;;
56893;SDS011;43392;50.078;13.704;2023-03-01T10:44:34;32.88;;;16.52;;
56893;SDS011;43392;50.078;13.704;2023-03-01T10:49:55;28.73;;;16.23;;
56893;SDS011;43392;50.078;13.704;2023-03-01T10:52:26;28.35;;;16.80;;
56893;SDS011;43392;50.078;13.704;2023-03-01T10:54:57;30.65;;;16.02;;
56893;SDS011;43392;50.078;13.704;2023-03-01T10:57:35;30.80;;;16.38;;
56893;SDS011;43392;50.078;13.704;2023-03-01T11:00:19;28.23;;;16.80;;
56893;SDS011;43392;50.078;13.704;2023-03-01T11:02:49;27.67;;;16.38;;
56893;SDS011;43392;50.078;13.704;2023-03-01T11:05:19;28.73;;;15.75;;
56893;SDS011;43392;50.078;13.704;2023-03-01T11:07:49;26.88;;;16.15;;
56893;SDS011;43392;50.078;13.704;2023-03-01T11:10:20;23.77;;;14.57;;
56893;SDS011;43392;50.078;13.704;2023-03-01T11:15:22;26.05;;;14.77;;
56893;SDS011;43392;50.078;13.704;2023-03-01T11:17:51;27.80;;;15.38;;
56893;SDS011;43392;50.078;13.704;2023-03-01T11:20:20;26.52;;;15.57;;
56893;SDS011;43392;50.078;13.704;2023-03-01T11:22:53;26.08;;;14.10;;
56893;SDS011;43392;50.078;13.704;2023-03-01T11:25:23;25.73;;;14.88;;
56893;SDS011;43392;50.078;13.704;2023-03-01T11:27:52;22.13;;;13.93;;
56893;SDS011;43392;50.078;13.704;2023-03-01T11:30:20;27.15;;;15.38;;
56893;SDS011;43392;50.078;13.704;2023-03-01T11:32:52;27.13;;;14.90;;
56893;SDS011;43392;50.078;13.704;2023-03-01T11:35:27;27.10;;;14.85;;
56893;SDS011;43392;50.078;13.704;2023-03-01T11:37:58;46.03;;;22.02;;
56893;SDS011;43392;50.078;13.704;2023-03-01T11:40:38;33.73;;;18.37;;
56893;SDS011;43392;50.078;13.704;2023-03-01T11:43:11;27.73;;;15.98;;
56893;SDS011;43392;50.078;13.704;2023-03-01T11:45:47;25.05;;;15.70;;
56893;SDS011;43392;50.078;13.704;2023-03-01T11:48:32;33.63;;;19.80;;
56893;SDS011;43392;50.078;13.704;2023-03-01T11:51:09;31.60;;;16.58;;
56893;SDS011;43392;50.078;13.704;2023-03-01T11:53:54;26.33;;;15.48;;
56893;SDS011;43392;50.078;13.704;2023-03-01T11:56:34;25.85;;;15.85;;
56893;SDS011;43392;50.078;13.704;2023-03-01T11:59:12;24.73;;;15.35;;
56893;SDS011;43392;50.078;13.704;2023-03-01T12:02:00;25.58;;;15.90;;
56893;SDS011;43392;50.078;13.704;2023-03-01T12:07:42;30.50;;;16.85;;
56893;SDS011;43392;50.078;13.704;2023-03-01T12:10:23;31.98;;;18.58;;
56893;SDS011;43392;50.078;13.704;2023-03-01T12:13:11;29.10;;;16.80;;
56893;SDS011;43392;50.078;13.704;2023-03-01T12:16:05;33.58;;;17.92;;
56893;SDS011;43392;50.078;13.704;2023-03-01T12:18:47;33.33;;;19.00;;
56893;SDS011;43392;50.078;13.704;2023-03-01T12:21:29;33.30;;;19.25;;
56893;SDS011;43392;50.078;13.704;2023-03-01T12:27:10;30.88;;;19.00;;
56893;SDS011;43392;50.078;13.704;2023-03-01T12:29:48;34.00;;;19.38;;
56893;SDS011;43392;50.078;13.704;2023-03-01T12:32:27;36.95;;;19.40;;
56893;SDS011;43392;50.078;13.704;2023-03-01T12:38:04;32.22;;;18.80;;
56893;SDS011;43392;50.078;13.704;2023-03-01T12:43:44;33.58;;;19.25;;
56893;SDS011;43392;50.078;13.704;2023-03-01T12:46:23;31.02;;;19.27;;
56893;SDS011;43392;50.078;13.704;2023-03-01T12:49:02;31.67;;;19.58;;
56893;SDS011;43392;50.078;13.704;2023-03-01T12:51:34;33.17;;;18.83;;
56893;SDS011;43392;50.078;13.704;2023-03-01T12:54:05;32.40;;;17.70;;
56893;SDS011;43392;50.078;13.704;2023-03-01T12:56:38;31.08;;;17.98;;
56893;SDS011;43392;50.078;13.704;2023-03-01T12:59:08;28.77;;;16.20;;
56893;SDS011;43392;50.078;13.704;2023-03-01T13:01:45;28.05;;;17.67;;
56893;SDS011;43392;50.078;13.704;2023-03-01T13:04:27;29.92;;;18.15;;
56893;SDS011;43392;50.078;13.704;2023-03-01T13:07:04;30.90;;;17.90;;
56893;SDS011;43392;50.078;13.704;2023-03-01T13:09:43;30.23;;;17.88;;
56893;SDS011;43392;50.078;13.704;2023-03-01T13:15:24;31.38;;;18.70;;
56893;SDS011;43392;50.078;13.704;2023-03-01T13:17:54;33.92;;;18.73;;
56893;SDS011;43392;50.078;13.704;2023-03-01T13:20:23;32.95;;;18.48;;
56893;SDS011;43392;50.078;13.704;2023-03-01T13:23:00;32.47;;;18.95;;
56893;SDS011;43392;50.078;13.704;2023-03-01T13:25:29;33.17;;;19.90;;
56893;SDS011;43392;50.078;13.704;2023-03-01T13:28:32;34.22;;;19.13;;
56893;SDS011;43392;50.078;13.704;2023-03-01T13:31:03;30.85;;;18.38;;
56893;SDS011;43392;50.078;13.704;2023-03-01T13:33:43;31.92;;;18.95;;
56893;SDS011;43392;50.078;13.704;2023-03-01T13:36:11;33.30;;;18.13;;
56893;SDS011;43392;50.078;13.704;2023-03-01T13:39:26;29.63;;;18.63;;
56893;SDS011;43392;50.078;13.704;2023-03-01T13:41:57;28.33;;;17.58;;
56893;SDS011;43392;50.078;13.704;2023-03-01T13:44:26;31.42;;;18.02;;
56893;SDS011;43392;50.078;13.704;2023-03-01T13:46:56;31.73;;;18.65;;
56893;SDS011;43392;50.078;13.704;2023-03-01T13:49:28;31.98;;;18.95;;
56893;SDS011;43392;50.078;13.704;2023-03-01T13:52:02;35.22;;;19.50;;
56893;SDS011;43392;50.078;13.704;2023-03-01T13:54:29;31.63;;;18.80;;
56893;SDS011;43392;50.078;13.704;2023-03-01T13:56:58;30.00;;;17.70;;
56893;SDS011;43392;50.078;13.704;2023-03-01T13:59:26;32.47;;;18.67;;
56893;SDS011;43392;50.078;13.704;2023-03-01T14:01:55;31.27;;;18.15;;
56893;SDS011;43392;50.078;13.704;2023-03-01T14:04:24;28.17;;;17.20;;
56893;SDS011;43392;50.078;13.704;2023-03-01T14:09:47;30.65;;;18.75;;
56893;SDS011;43392;50.078;13.704;2023-03-01T14:12:20;28.13;;;17.08;;
56893;SDS011;43392;50.078;13.704;2023-03-01T14:14:57;31.98;;;17.48;;
56893;SDS011;43392;50.078;13.704;2023-03-01T14:17:31;29.27;;;17.90;;
56893;SDS011;43392;50.078;13.704;2023-03-01T14:20:12;29.52;;;17.48;;
56893;SDS011;43392;50.078;13.704;2023-03-01T14:22:42;30.75;;;17.80;;
56893;SDS011;43392;50.078;13.704;2023-03-01T14:25:19;29.48;;;17.35;;
56893;SDS011;43392;50.078;13.704;2023-03-01T14:27:54;32.00;;;17.83;;
56893;SDS011;43392;50.078;13.704;2023-03-01T14:30:23;31.17;;;17.50;;
56893;SDS011;43392;50.078;13.704;2023-03-01T14:32:53;30.02;;;18.10;;
56893;SDS011;43392;50.078;13.704;2023-03-01T14:35:22;30.88;;;18.70;;
56893;SDS011;43392;50.078;13.704;2023-03-01T14:37:50;32.03;;;17.73;;
56893;SDS011;43392;50.078;13.704;2023-03-01T14:40:25;28.92;;;17.58;;
56893;SDS011;43392;50.078;13.704;2023-03-01T14:42:54;31.10;;;18.35;;
56893;SDS011;43392;50.078;13.704;2023-03-01T14:45:22;32.80;;;18.45;;
56893;SDS011;43392;50.078;13.704;2023-03-01T14:47:51;31.88;;;18.42;;
56893;SDS011;43392;50.078;13.704;2023-03-01T14:50:20;29.67;;;17.83;;
56893;SDS011;43392;50.078;13.704;2023-03-01T14:52:50;30.45;;;17.55;;
56893;SDS011;43392;50.078;13.704;2023-03-01T14:55:19;31.00;;;18.20;;